sensor_id;sensor_type;location;lat;lon;timestamp;P1;durP1;ratioP1;P2;durP2;ratioP2
67941;SDS011;54731;42.600;23.476;2022-11-12T00:00:38;20.23;;;11.60;;
67941;SDS011;54731;42.600;23.476;2022-11-12T00:03:04;20.70;;;11.43;;
67941;SDS011;54731;42.600;23.476;2022-11-12T00:05:29;23.63;;;11.15;;
67941;SDS011;54731;42.600;23.476;2022-11-12T00:07:56;20.38;;;10.68;;
67941;SDS011;54731;42.600;23.476;2022-11-12T00:10:21;20.53;;;11.07;;
67941;SDS011;54731;42.600;23.476;2022-11-12T00:12:47;21.83;;;10.65;;
67941;SDS011;54731;42.600;23.476;2022-11-12T00:15:12;19.30;;;10.40;;
67941;SDS011;54731;42.600;23.476;2022-11-12T00:17:38;16.20;;;9.10;;
67941;SDS011;54731;42.600;23.476;2022-11-12T00:20:04;17.83;;;8.97;;
67941;SDS011;54731;42.600;23.476;2022-11-12T00:22:30;16.75;;;8.48;;
67941;SDS011;54731;42.600;23.476;2022-11-12T00:24:55;18.63;;;9.43;;
67941;SDS011;54731;42.600;23.476;2022-11-12T00:27:21;15.53;;;8.07;;
67941;SDS011;54731;42.600;23.476;2022-11-12T00:29:46;13.07;;;7.82;;
67941;SDS011;54731;42.600;23.476;2022-11-12T00:32:12;14.70;;;7.80;;
67941;SDS011;54731;42.600;23.476;2022-11-12T00:34:37;17.30;;;9.20;;
67941;SDS011;54731;42.600;23.476;2022-11-12T00:37:03;28.80;;;13.97;;
67941;SDS011;54731;42.600;23.476;2022-11-12T00:39:28;38.75;;;17.73;;
67941;SDS011;54731;42.600;23.476;2022-11-12T00:41:54;21.50;;;11.87;;
67941;SDS011;54731;42.600;23.476;2022-11-12T00:44:19;19.13;;;9.05;;
67941;SDS011;54731;42.600;23.476;2022-11-12T00:46:45;16.50;;;9.13;;
67941;SDS011;54731;42.600;23.476;2022-11-12T00:49:11;18.27;;;9.23;;
67941;SDS011;54731;42.600;23.476;2022-11-12T00:51:36;16.48;;;8.85;;
67941;SDS011;54731;42.600;23.476;2022-11-12T00:54:01;15.23;;;8.63;;
67941;SDS011;54731;42.600;23.476;2022-11-12T00:56:27;17.23;;;8.83;;
67941;SDS011;54731;42.600;23.476;2022-11-12T00:58:52;14.00;;;8.37;;
67941;SDS011;54731;42.600;23.476;2022-11-12T01:01:18;16.05;;;8.73;;
67941;SDS011;54731;42.600;23.476;2022-11-12T01:03:44;12.10;;;6.95;;
67941;SDS011;54731;42.600;23.476;2022-11-12T01:06:16;13.47;;;7.40;;
67941;SDS011;54731;42.600;23.476;2022-11-12T01:08:46;12.85;;;7.38;;
67941;SDS011;54731;42.600;23.476;2022-11-12T01:11:23;17.58;;;9.40;;
67941;SDS011;54731;42.600;23.476;2022-11-12T01:13:59;20.40;;;9.82;;
67941;SDS011;54731;42.600;23.476;2022-11-12T01:16:30;22.23;;;12.82;;
67941;SDS011;54731;42.600;23.476;2022-11-12T01:18:59;22.80;;;12.07;;
67941;SDS011;54731;42.600;23.476;2022-11-12T01:21:27;18.95;;;9.48;;
67941;SDS011;54731;42.600;23.476;2022-11-12T01:23:55;15.07;;;8.77;;
67941;SDS011;54731;42.600;23.476;2022-11-12T01:26:23;17.45;;;10.00;;
67941;SDS011;54731;42.600;23.476;2022-11-12T01:28:48;20.87;;;12.10;;
67941;SDS011;54731;42.600;23.476;2022-11-12T01:31:21;17.52;;;10.23;;
67941;SDS011;54731;42.600;23.476;2022-11-12T01:34:01;28.17;;;14.95;;
67941;SDS011;54731;42.600;23.476;2022-11-12T01:36:31;22.30;;;11.83;;
67941;SDS011;54731;42.600;23.476;2022-11-12T01:38:59;15.68;;;8.20;;
67941;SDS011;54731;42.600;23.476;2022-11-12T01:41:27;14.30;;;7.40;;
67941;SDS011;54731;42.600;23.476;2022-11-12T01:46:32;13.15;;;7.45;;
67941;SDS011;54731;42.600;23.476;2022-11-12T01:49:02;16.27;;;8.13;;
67941;SDS011;54731;42.600;23.476;2022-11-12T01:51:31;23.58;;;14.48;;
67941;SDS011;54731;42.600;23.476;2022-11-12T01:54:02;16.63;;;8.57;;
67941;SDS011;54731;42.600;23.476;2022-11-12T01:56:31;14.63;;;8.35;;
67941;SDS011;54731;42.600;23.476;2022-11-12T01:59:04;13.18;;;7.13;;
67941;SDS011;54731;42.600;23.476;2022-11-12T02:01:34;13.95;;;7.63;;
67941;SDS011;54731;42.600;23.476;2022-11-12T02:04:01;17.70;;;8.20;;
67941;SDS011;54731;42.600;23.476;2022-11-12T02:06:26;15.07;;;8.83;;
67941;SDS011;54731;42.600;23.476;2022-11-12T02:08:52;21.98;;;12.18;;
67941;SDS011;54731;42.600;23.476;2022-11-12T02:11:18;22.15;;;11.82;;
67941;SDS011;54731;42.600;23.476;2022-11-12T02:13:45;19.80;;;10.95;;
67941;SDS011;54731;42.600;23.476;2022-11-12T02:16:12;19.70;;;10.20;;
67941;SDS011;54731;42.600;23.476;2022-11-12T02:18:37;19.80;;;11.55;;
67941;SDS011;54731;42.600;23.476;2022-11-12T02:21:04;25.00;;;12.90;;
67941;SDS011;54731;42.600;23.476;2022-11-12T02:23:32;20.35;;;11.98;;
67941;SDS011;54731;42.600;23.476;2022-11-12T02:26:00;18.53;;;10.87;;
67941;SDS011;54731;42.600;23.476;2022-11-12T02:28:26;21.45;;;12.20;;
67941;SDS011;54731;42.600;23.476;2022-11-12T02:30:55;25.52;;;13.05;;
67941;SDS011;54731;42.600;23.476;2022-11-12T02:33:20;22.75;;;13.13;;
67941;SDS011;54731;42.600;23.476;2022-11-12T02:35:46;26.90;;;13.37;;
67941;SDS011;54731;42.600;23.476;2022-11-12T02:38:11;27.07;;;13.40;;
67941;SDS011;54731;42.600;23.476;2022-11-12T02:40:36;27.63;;;13.80;;
67941;SDS011;54731;42.600;23.476;2022-11-12T02:43:02;29.47;;;15.33;;
67941;SDS011;54731;42.600;23.476;2022-11-12T02:45:27;31.80;;;15.85;;
67941;SDS011;54731;42.600;23.476;2022-11-12T02:47:53;27.53;;;14.90;;
67941;SDS011;54731;42.600;23.476;2022-11-12T02:50:18;26.83;;;15.03;;
67941;SDS011;54731;42.600;23.476;2022-11-12T02:52:44;31.13;;;15.65;;
67941;SDS011;54731;42.600;23.476;2022-11-12T02:55:09;29.07;;;14.77;;
67941;SDS011;54731;42.600;23.476;2022-11-12T02:57:36;24.27;;;12.90;;
67941;SDS011;54731;42.600;23.476;2022-11-12T03:00:03;22.77;;;11.53;;
67941;SDS011;54731;42.600;23.476;2022-11-12T03:02:33;20.75;;;10.77;;
67941;SDS011;54731;42.600;23.476;2022-11-12T03:04:59;19.53;;;9.67;;
67941;SDS011;54731;42.600;23.476;2022-11-12T03:07:24;14.23;;;7.73;;
67941;SDS011;54731;42.600;23.476;2022-11-12T03:09:49;21.00;;;10.15;;
67941;SDS011;54731;42.600;23.476;2022-11-12T03:12:15;16.03;;;7.77;;
67941;SDS011;54731;42.600;23.476;2022-11-12T03:14:40;13.97;;;6.60;;
67941;SDS011;54731;42.600;23.476;2022-11-12T03:17:05;11.83;;;6.37;;
67941;SDS011;54731;42.600;23.476;2022-11-12T03:19:31;11.97;;;6.87;;
67941;SDS011;54731;42.600;23.476;2022-11-12T03:21:56;11.90;;;5.70;;
67941;SDS011;54731;42.600;23.476;2022-11-12T03:24:21;9.37;;;5.50;;
67941;SDS011;54731;42.600;23.476;2022-11-12T03:26:46;11.50;;;5.73;;
67941;SDS011;54731;42.600;23.476;2022-11-12T03:29:12;9.35;;;5.38;;
67941;SDS011;54731;42.600;23.476;2022-11-12T03:31:37;8.57;;;5.27;;
67941;SDS011;54731;42.600;23.476;2022-11-12T03:34:03;9.40;;;5.37;;
67941;SDS011;54731;42.600;23.476;2022-11-12T03:36:29;9.65;;;5.28;;
67941;SDS011;54731;42.600;23.476;2022-11-12T03:38:54;9.17;;;4.97;;
67941;SDS011;54731;42.600;23.476;2022-11-12T03:41:20;9.80;;;6.00;;
67941;SDS011;54731;42.600;23.476;2022-11-12T03:43:45;9.13;;;5.07;;
67941;SDS011;54731;42.600;23.476;2022-11-12T03:46:10;9.03;;;4.80;;
67941;SDS011;54731;42.600;23.476;2022-11-12T03:48:36;8.97;;;4.93;;
67941;SDS011;54731;42.600;23.476;2022-11-12T03:51:01;7.80;;;4.63;;
67941;SDS011;54731;42.600;23.476;2022-11-12T03:53:26;8.93;;;4.93;;
67941;SDS011;54731;42.600;23.476;2022-11-12T03:55:52;9.33;;;4.83;;
67941;SDS011;54731;42.600;23.476;2022-11-12T03:58:17;8.27;;;4.47;;
67941;SDS011;54731;42.600;23.476;2022-11-12T04:00:42;11.27;;;5.57;;
67941;SDS011;54731;42.600;23.476;2022-11-12T04:03:08;9.75;;;5.05;;
67941;SDS011;54731;42.600;23.476;2022-11-12T04:05:33;11.20;;;5.27;;
67941;SDS011;54731;42.600;23.476;2022-11-12T04:08:00;8.80;;;5.00;;
67941;SDS011;54731;42.600;23.476;2022-11-12T04:10:26;8.50;;;5.22;;
67941;SDS011;54731;42.600;23.476;2022-11-12T04:12:51;9.17;;;4.90;;
67941;SDS011;54731;42.600;23.476;2022-11-12T04:15:17;17.30;;;5.10;;
67941;SDS011;54731;42.600;23.476;2022-11-12T04:17:42;9.50;;;5.80;;
67941;SDS011;54731;42.600;23.476;2022-11-12T04:20:07;9.17;;;5.23;;
67941;SDS011;54731;42.600;23.476;2022-11-12T04:22:33;9.90;;;4.55;;
67941;SDS011;54731;42.600;23.476;2022-11-12T04:24:58;10.47;;;5.13;;
67941;SDS011;54731;42.600;23.476;2022-11-12T04:27:24;9.10;;;4.90;;
67941;SDS011;54731;42.600;23.476;2022-11-12T04:29:54;12.35;;;5.75;;
67941;SDS011;54731;42.600;23.476;2022-11-12T04:32:19;9.67;;;5.13;;
67941;SDS011;54731;42.600;23.476;2022-11-12T04:34:44;7.53;;;4.23;;
67941;SDS011;54731;42.600;23.476;2022-11-12T04:37:10;8.33;;;5.13;;
67941;SDS011;54731;42.600;23.476;2022-11-12T04:39:35;11.30;;;4.70;;
67941;SDS011;54731;42.600;23.476;2022-11-12T04:42:00;11.33;;;6.67;;
67941;SDS011;54731;42.600;23.476;2022-11-12T04:44:26;9.45;;;5.18;;
67941;SDS011;54731;42.600;23.476;2022-11-12T04:46:51;13.15;;;7.20;;
67941;SDS011;54731;42.600;23.476;2022-11-12T04:49:16;11.93;;;9.70;;
67941;SDS011;54731;42.600;23.476;2022-11-12T04:51:42;12.83;;;7.97;;
67941;SDS011;54731;42.600;23.476;2022-11-12T04:54:07;13.23;;;6.50;;
67941;SDS011;54731;42.600;23.476;2022-11-12T04:56:32;10.17;;;6.20;;
67941;SDS011;54731;42.600;23.476;2022-11-12T04:58:57;10.63;;;6.60;;
67941;SDS011;54731;42.600;23.476;2022-11-12T05:01:23;10.40;;;6.97;;
67941;SDS011;54731;42.600;23.476;2022-11-12T05:03:48;11.47;;;6.17;;
67941;SDS011;54731;42.600;23.476;2022-11-12T05:06:13;9.43;;;5.03;;
67941;SDS011;54731;42.600;23.476;2022-11-12T05:08:39;13.07;;;6.40;;
67941;SDS011;54731;42.600;23.476;2022-11-12T05:11:04;13.68;;;7.47;;
67941;SDS011;54731;42.600;23.476;2022-11-12T05:13:29;11.80;;;5.70;;
67941;SDS011;54731;42.600;23.476;2022-11-12T05:15:54;11.73;;;7.33;;
67941;SDS011;54731;42.600;23.476;2022-11-12T05:18:20;11.63;;;5.93;;
67941;SDS011;54731;42.600;23.476;2022-11-12T05:20:45;12.10;;;6.13;;
67941;SDS011;54731;42.600;23.476;2022-11-12T05:23:10;9.23;;;5.73;;
67941;SDS011;54731;42.600;23.476;2022-11-12T05:25:36;10.43;;;6.50;;
67941;SDS011;54731;42.600;23.476;2022-11-12T05:28:01;11.00;;;6.57;;
67941;SDS011;54731;42.600;23.476;2022-11-12T05:30:27;11.98;;;6.55;;
67941;SDS011;54731;42.600;23.476;2022-11-12T05:32:52;12.43;;;5.93;;
67941;SDS011;54731;42.600;23.476;2022-11-12T05:35:17;9.37;;;5.67;;
67941;SDS011;54731;42.600;23.476;2022-11-12T05:37:42;9.93;;;5.73;;
67941;SDS011;54731;42.600;23.476;2022-11-12T05:40:08;17.30;;;6.07;;
67941;SDS011;54731;42.600;23.476;2022-11-12T05:42:33;11.32;;;5.75;;
67941;SDS011;54731;42.600;23.476;2022-11-12T05:44:59;9.57;;;5.82;;
67941;SDS011;54731;42.600;23.476;2022-11-12T05:47:24;9.77;;;6.17;;
67941;SDS011;54731;42.600;23.476;2022-11-12T05:49:49;10.00;;;5.83;;
67941;SDS011;54731;42.600;23.476;2022-11-12T05:52:14;10.67;;;5.87;;
67941;SDS011;54731;42.600;23.476;2022-11-12T05:54:40;8.47;;;5.43;;
67941;SDS011;54731;42.600;23.476;2022-11-12T05:57:05;10.17;;;6.30;;
67941;SDS011;54731;42.600;23.476;2022-11-12T05:59:30;10.33;;;5.67;;
67941;SDS011;54731;42.600;23.476;2022-11-12T06:01:56;12.33;;;6.47;;
67941;SDS011;54731;42.600;23.476;2022-11-12T06:04:21;11.23;;;5.80;;
67941;SDS011;54731;42.600;23.476;2022-11-12T06:06:46;8.97;;;5.27;;
67941;SDS011;54731;42.600;23.476;2022-11-12T06:09:12;13.10;;;6.90;;
67941;SDS011;54731;42.600;23.476;2022-11-12T06:11:37;12.07;;;6.37;;
67941;SDS011;54731;42.600;23.476;2022-11-12T06:14:03;14.03;;;7.00;;
67941;SDS011;54731;42.600;23.476;2022-11-12T06:16:29;9.98;;;6.10;;
67941;SDS011;54731;42.600;23.476;2022-11-12T06:18:54;10.65;;;5.28;;
67941;SDS011;54731;42.600;23.476;2022-11-12T06:21:20;12.20;;;5.70;;
67941;SDS011;54731;42.600;23.476;2022-11-12T06:23:45;9.57;;;5.47;;
67941;SDS011;54731;42.600;23.476;2022-11-12T06:26:12;10.20;;;5.75;;
67941;SDS011;54731;42.600;23.476;2022-11-12T06:28:37;10.43;;;5.47;;
67941;SDS011;54731;42.600;23.476;2022-11-12T06:31:03;9.77;;;6.37;;
67941;SDS011;54731;42.600;23.476;2022-11-12T06:33:28;9.82;;;6.88;;
67941;SDS011;54731;42.600;23.476;2022-11-12T06:35:57;24.25;;;7.45;;
67941;SDS011;54731;42.600;23.476;2022-11-12T06:38:24;10.43;;;6.55;;
67941;SDS011;54731;42.600;23.476;2022-11-12T06:40:49;10.50;;;6.03;;
67941;SDS011;54731;42.600;23.476;2022-11-12T06:43:15;11.10;;;5.77;;
67941;SDS011;54731;42.600;23.476;2022-11-12T06:45:40;11.60;;;5.73;;
67941;SDS011;54731;42.600;23.476;2022-11-12T06:48:05;12.50;;;7.30;;
67941;SDS011;54731;42.600;23.476;2022-11-12T06:50:31;10.00;;;6.00;;
67941;SDS011;54731;42.600;23.476;2022-11-12T06:52:57;11.30;;;6.40;;
67941;SDS011;54731;42.600;23.476;2022-11-12T06:55:22;13.75;;;6.72;;
67941;SDS011;54731;42.600;23.476;2022-11-12T06:57:50;12.93;;;7.23;;
67941;SDS011;54731;42.600;23.476;2022-11-12T07:00:16;16.70;;;9.13;;
67941;SDS011;54731;42.600;23.476;2022-11-12T07:02:41;30.97;;;16.53;;
67941;SDS011;54731;42.600;23.476;2022-11-12T07:05:07;20.13;;;10.77;;
67941;SDS011;54731;42.600;23.476;2022-11-12T07:07:32;16.00;;;8.90;;
67941;SDS011;54731;42.600;23.476;2022-11-12T07:09:57;16.58;;;9.05;;
67941;SDS011;54731;42.600;23.476;2022-11-12T07:12:23;15.47;;;9.20;;
67941;SDS011;54731;42.600;23.476;2022-11-12T07:14:48;12.37;;;7.50;;
67941;SDS011;54731;42.600;23.476;2022-11-12T07:17:13;14.03;;;8.10;;
67941;SDS011;54731;42.600;23.476;2022-11-12T07:19:39;12.87;;;7.40;;
67941;SDS011;54731;42.600;23.476;2022-11-12T07:22:04;13.50;;;7.03;;
67941;SDS011;54731;42.600;23.476;2022-11-12T07:24:29;13.83;;;8.03;;
67941;SDS011;54731;42.600;23.476;2022-11-12T07:26:54;15.37;;;8.47;;
67941;SDS011;54731;42.600;23.476;2022-11-12T07:29:20;11.50;;;6.43;;
67941;SDS011;54731;42.600;23.476;2022-11-12T07:31:45;10.77;;;6.50;;
67941;SDS011;54731;42.600;23.476;2022-11-12T07:34:10;15.25;;;7.45;;
67941;SDS011;54731;42.600;23.476;2022-11-12T07:36:36;14.33;;;8.27;;
67941;SDS011;54731;42.600;23.476;2022-11-12T07:39:01;18.17;;;8.70;;
67941;SDS011;54731;42.600;23.476;2022-11-12T07:41:26;13.50;;;9.20;;
67941;SDS011;54731;42.600;23.476;2022-11-12T07:43:52;12.07;;;8.77;;
67941;SDS011;54731;42.600;23.476;2022-11-12T07:46:18;15.55;;;10.18;;
67941;SDS011;54731;42.600;23.476;2022-11-12T07:48:45;14.90;;;8.20;;
67941;SDS011;54731;42.600;23.476;2022-11-12T07:53:41;9.45;;;6.07;;
67941;SDS011;54731;42.600;23.476;2022-11-12T07:56:08;8.75;;;5.40;;
67941;SDS011;54731;42.600;23.476;2022-11-12T07:58:35;9.90;;;5.57;;
67941;SDS011;54731;42.600;23.476;2022-11-12T08:01:18;9.67;;;5.67;;
67941;SDS011;54731;42.600;23.476;2022-11-12T08:04:06;12.73;;;7.15;;
67941;SDS011;54731;42.600;23.476;2022-11-12T08:06:33;9.97;;;6.13;;
67941;SDS011;54731;42.600;23.476;2022-11-12T08:08:59;8.43;;;5.50;;
67941;SDS011;54731;42.600;23.476;2022-11-12T08:11:26;6.53;;;4.18;;
67941;SDS011;54731;42.600;23.476;2022-11-12T08:13:52;8.40;;;4.33;;
67941;SDS011;54731;42.600;23.476;2022-11-12T08:16:17;12.00;;;6.03;;
67941;SDS011;54731;42.600;23.476;2022-11-12T08:18:43;12.63;;;6.10;;
67941;SDS011;54731;42.600;23.476;2022-11-12T08:21:10;12.27;;;6.82;;
67941;SDS011;54731;42.600;23.476;2022-11-12T08:23:37;11.03;;;5.67;;
67941;SDS011;54731;42.600;23.476;2022-11-12T08:26:04;14.50;;;6.90;;
67941;SDS011;54731;42.600;23.476;2022-11-12T08:28:31;18.38;;;7.82;;
67941;SDS011;54731;42.600;23.476;2022-11-12T08:31:01;15.10;;;5.82;;
67941;SDS011;54731;42.600;23.476;2022-11-12T08:33:36;8.32;;;4.80;;
67941;SDS011;54731;42.600;23.476;2022-11-12T08:36:05;12.33;;;6.43;;
67941;SDS011;54731;42.600;23.476;2022-11-12T08:38:33;8.45;;;5.57;;
67941;SDS011;54731;42.600;23.476;2022-11-12T08:40:59;8.25;;;5.30;;
67941;SDS011;54731;42.600;23.476;2022-11-12T08:43:25;9.48;;;5.68;;
67941;SDS011;54731;42.600;23.476;2022-11-12T08:45:50;8.60;;;4.80;;
67941;SDS011;54731;42.600;23.476;2022-11-12T08:48:16;9.13;;;5.00;;
67941;SDS011;54731;42.600;23.476;2022-11-12T08:50:41;9.23;;;4.57;;
67941;SDS011;54731;42.600;23.476;2022-11-12T08:53:07;8.40;;;5.30;;
67941;SDS011;54731;42.600;23.476;2022-11-12T08:55:34;10.15;;;5.05;;
67941;SDS011;54731;42.600;23.476;2022-11-12T08:58:01;21.42;;;8.15;;
67941;SDS011;54731;42.600;23.476;2022-11-12T09:00:27;14.80;;;6.13;;
67941;SDS011;54731;42.600;23.476;2022-11-12T09:02:54;7.72;;;4.32;;
67941;SDS011;54731;42.600;23.476;2022-11-12T09:05:19;7.27;;;4.33;;
67941;SDS011;54731;42.600;23.476;2022-11-12T09:07:44;6.38;;;4.45;;
67941;SDS011;54731;42.600;23.476;2022-11-12T09:10:10;9.10;;;5.47;;
67941;SDS011;54731;42.600;23.476;2022-11-12T09:12:35;10.63;;;6.90;;
67941;SDS011;54731;42.600;23.476;2022-11-12T09:15:01;14.07;;;7.30;;
67941;SDS011;54731;42.600;23.476;2022-11-12T09:17:26;11.93;;;6.45;;
67941;SDS011;54731;42.600;23.476;2022-11-12T09:19:51;9.55;;;4.95;;
67941;SDS011;54731;42.600;23.476;2022-11-12T09:22:17;9.23;;;5.70;;
67941;SDS011;54731;42.600;23.476;2022-11-12T09:24:42;10.53;;;4.73;;
67941;SDS011;54731;42.600;23.476;2022-11-12T09:27:07;5.53;;;3.53;;
67941;SDS011;54731;42.600;23.476;2022-11-12T09:29:32;5.83;;;4.33;;
67941;SDS011;54731;42.600;23.476;2022-11-12T09:31:58;8.70;;;5.63;;
67941;SDS011;54731;42.600;23.476;2022-11-12T09:34:23;11.30;;;4.90;;
67941;SDS011;54731;42.600;23.476;2022-11-12T09:36:49;7.25;;;4.70;;
67941;SDS011;54731;42.600;23.476;2022-11-12T09:39:14;15.50;;;9.83;;
67941;SDS011;54731;42.600;23.476;2022-11-12T09:41:41;14.80;;;7.73;;
67941;SDS011;54731;42.600;23.476;2022-11-12T09:44:11;17.95;;;11.60;;
67941;SDS011;54731;42.600;23.476;2022-11-12T09:52:00;15.30;;;10.23;;
67941;SDS011;54731;42.600;23.476;2022-11-12T09:54:31;7.82;;;5.07;;
67941;SDS011;54731;42.600;23.476;2022-11-12T09:56:58;9.30;;;4.10;;
67941;SDS011;54731;42.600;23.476;2022-11-12T09:59:42;7.93;;;3.67;;
67941;SDS011;54731;42.600;23.476;2022-11-12T10:04:55;8.32;;;5.35;;
67941;SDS011;54731;42.600;23.476;2022-11-12T10:10:32;9.25;;;4.72;;
67941;SDS011;54731;42.600;23.476;2022-11-12T10:15:57;14.13;;;6.85;;
67941;SDS011;54731;42.600;23.476;2022-11-12T10:21:13;10.97;;;6.40;;
67941;SDS011;54731;42.600;23.476;2022-11-12T10:23:59;8.70;;;4.88;;
67941;SDS011;54731;42.600;23.476;2022-11-12T10:26:25;12.02;;;7.38;;
67941;SDS011;54731;42.600;23.476;2022-11-12T10:28:58;10.00;;;5.77;;
67941;SDS011;54731;42.600;23.476;2022-11-12T10:31:32;10.20;;;6.40;;
67941;SDS011;54731;42.600;23.476;2022-11-12T10:34:06;12.00;;;6.37;;
67941;SDS011;54731;42.600;23.476;2022-11-12T10:36:39;12.48;;;7.35;;
67941;SDS011;54731;42.600;23.476;2022-11-12T10:39:29;10.80;;;5.80;;
67941;SDS011;54731;42.600;23.476;2022-11-12T10:42:29;15.07;;;6.38;;
67941;SDS011;54731;42.600;23.476;2022-11-12T10:44:47;19.08;;;8.50;;
67941;SDS011;54731;42.600;23.476;2022-11-12T10:53:00;16.30;;;6.00;;
67941;SDS011;54731;42.600;23.476;2022-11-12T10:55:31;15.45;;;8.48;;
67941;SDS011;54731;42.600;23.476;2022-11-12T11:00:30;12.35;;;6.80;;
67941;SDS011;54731;42.600;23.476;2022-11-12T11:02:56;26.47;;;9.07;;
67941;SDS011;54731;42.600;23.476;2022-11-12T11:07:54;27.52;;;10.00;;
67941;SDS011;54731;42.600;23.476;2022-11-12T11:10:26;15.10;;;7.27;;
67941;SDS011;54731;42.600;23.476;2022-11-12T11:15:48;12.93;;;8.32;;
67941;SDS011;54731;42.600;23.476;2022-11-12T11:18:26;12.75;;;6.93;;
67941;SDS011;54731;42.600;23.476;2022-11-12T11:20:56;9.88;;;5.18;;
67941;SDS011;54731;42.600;23.476;2022-11-12T11:23:56;8.93;;;5.57;;
67941;SDS011;54731;42.600;23.476;2022-11-12T11:32:07;11.00;;;7.30;;
67941;SDS011;54731;42.600;23.476;2022-11-12T11:37:29;6.88;;;4.57;;
67941;SDS011;54731;42.600;23.476;2022-11-12T11:51:24;12.93;;;6.07;;
67941;SDS011;54731;42.600;23.476;2022-11-12T11:56:51;25.73;;;11.38;;
67941;SDS011;54731;42.600;23.476;2022-11-12T12:26:15;10.73;;;7.28;;
67941;SDS011;54731;42.600;23.476;2022-11-12T12:31:34;7.00;;;4.00;;
67941;SDS011;54731;42.600;23.476;2022-11-12T12:34:10;4.90;;;3.53;;
67941;SDS011;54731;42.600;23.476;2022-11-12T12:36:42;9.30;;;5.53;;
67941;SDS011;54731;42.600;23.476;2022-11-12T12:39:17;13.82;;;7.35;;
67941;SDS011;54731;42.600;23.476;2022-11-12T12:41:53;34.25;;;21.63;;
67941;SDS011;54731;42.600;23.476;2022-11-12T12:44:22;17.23;;;10.85;;
67941;SDS011;54731;42.600;23.476;2022-11-12T12:46:51;9.90;;;5.67;;
67941;SDS011;54731;42.600;23.476;2022-11-12T12:49:24;23.23;;;12.50;;
67941;SDS011;54731;42.600;23.476;2022-11-12T12:51:57;37.80;;;19.77;;
67941;SDS011;54731;42.600;23.476;2022-11-12T12:57:00;23.33;;;11.52;;
67941;SDS011;54731;42.600;23.476;2022-11-12T12:59:27;26.55;;;12.55;;
67941;SDS011;54731;42.600;23.476;2022-11-12T13:01:54;36.70;;;15.77;;
67941;SDS011;54731;42.600;23.476;2022-11-12T13:04:48;53.75;;;22.83;;
67941;SDS011;54731;42.600;23.476;2022-11-12T13:07:19;36.28;;;16.75;;
67941;SDS011;54731;42.600;23.476;2022-11-12T13:13:02;28.63;;;12.48;;
67941;SDS011;54731;42.600;23.476;2022-11-12T13:15:50;19.33;;;9.47;;
67941;SDS011;54731;42.600;23.476;2022-11-12T13:21:11;29.50;;;12.07;;
67941;SDS011;54731;42.600;23.476;2022-11-12T13:23:47;18.65;;;9.02;;
67941;SDS011;54731;42.600;23.476;2022-11-12T13:32:22;18.30;;;10.80;;
67941;SDS011;54731;42.600;23.476;2022-11-12T13:37:40;35.47;;;14.02;;
67941;SDS011;54731;42.600;23.476;2022-11-12T13:40:14;34.22;;;11.95;;
67941;SDS011;54731;42.600;23.476;2022-11-12T13:42:44;51.93;;;16.83;;
67941;SDS011;54731;42.600;23.476;2022-11-12T13:45:10;44.42;;;15.20;;
67941;SDS011;54731;42.600;23.476;2022-11-12T13:47:36;73.40;;;20.43;;
67941;SDS011;54731;42.600;23.476;2022-11-12T13:50:02;75.47;;;20.55;;
67941;SDS011;54731;42.600;23.476;2022-11-12T13:52:30;71.10;;;21.25;;
67941;SDS011;54731;42.600;23.476;2022-11-12T13:55:03;74.45;;;25.67;;
67941;SDS011;54731;42.600;23.476;2022-11-12T13:57:30;34.25;;;15.63;;
67941;SDS011;54731;42.600;23.476;2022-11-12T14:00:10;29.17;;;16.15;;
67941;SDS011;54731;42.600;23.476;2022-11-12T14:02:43;20.67;;;15.77;;
67941;SDS011;54731;42.600;23.476;2022-11-12T14:05:12;11.25;;;8.32;;
67941;SDS011;54731;42.600;23.476;2022-11-12T14:10:34;10.07;;;6.57;;
67941;SDS011;54731;42.600;23.476;2022-11-12T14:19:05;25.48;;;10.75;;
67941;SDS011;54731;42.600;23.476;2022-11-12T14:21:30;8.68;;;5.28;;
67941;SDS011;54731;42.600;23.476;2022-11-12T14:23:56;5.80;;;3.70;;
67941;SDS011;54731;42.600;23.476;2022-11-12T14:26:37;10.47;;;6.03;;
67941;SDS011;54731;42.600;23.476;2022-11-12T14:29:04;7.55;;;4.25;;
67941;SDS011;54731;42.600;23.476;2022-11-12T14:31:30;9.30;;;6.10;;
67941;SDS011;54731;42.600;23.476;2022-11-12T14:33:55;12.75;;;7.60;;
67941;SDS011;54731;42.600;23.476;2022-11-12T14:36:20;17.20;;;10.53;;
67941;SDS011;54731;42.600;23.476;2022-11-12T14:38:47;32.22;;;19.33;;
67941;SDS011;54731;42.600;23.476;2022-11-12T14:43:47;41.05;;;21.02;;
67941;SDS011;54731;42.600;23.476;2022-11-12T14:46:31;36.47;;;18.23;;
67941;SDS011;54731;42.600;23.476;2022-11-12T14:49:06;29.02;;;15.60;;
67941;SDS011;54731;42.600;23.476;2022-11-12T14:51:49;22.27;;;14.33;;
67941;SDS011;54731;42.600;23.476;2022-11-12T14:54:40;20.08;;;12.32;;
67941;SDS011;54731;42.600;23.476;2022-11-12T14:57:25;17.30;;;9.00;;
67941;SDS011;54731;42.600;23.476;2022-11-12T14:59:52;24.00;;;14.95;;
67941;SDS011;54731;42.600;23.476;2022-11-12T15:02:21;19.23;;;12.37;;
67941;SDS011;54731;42.600;23.476;2022-11-12T15:04:53;13.68;;;9.57;;
67941;SDS011;54731;42.600;23.476;2022-11-12T15:07:31;13.57;;;9.25;;
67941;SDS011;54731;42.600;23.476;2022-11-12T15:09:59;14.80;;;9.10;;
67941;SDS011;54731;42.600;23.476;2022-11-12T15:12:27;26.80;;;18.87;;
67941;SDS011;54731;42.600;23.476;2022-11-12T15:15:07;48.40;;;27.77;;
67941;SDS011;54731;42.600;23.476;2022-11-12T15:17:40;37.42;;;23.65;;
67941;SDS011;54731;42.600;23.476;2022-11-12T15:20:13;28.27;;;17.83;;
67941;SDS011;54731;42.600;23.476;2022-11-12T15:22:44;11.05;;;6.72;;
67941;SDS011;54731;42.600;23.476;2022-11-12T15:25:21;21.58;;;12.65;;
67941;SDS011;54731;42.600;23.476;2022-11-12T15:27:54;18.55;;;12.85;;
67941;SDS011;54731;42.600;23.476;2022-11-12T15:30:21;52.00;;;29.70;;
67941;SDS011;54731;42.600;23.476;2022-11-12T15:35:35;12.02;;;7.53;;
67941;SDS011;54731;42.600;23.476;2022-11-12T15:38:11;17.97;;;10.47;;
67941;SDS011;54731;42.600;23.476;2022-11-12T15:40:42;16.55;;;10.32;;
67941;SDS011;54731;42.600;23.476;2022-11-12T15:43:23;21.00;;;12.30;;
67941;SDS011;54731;42.600;23.476;2022-11-12T15:45:51;21.75;;;13.15;;
67941;SDS011;54731;42.600;23.476;2022-11-12T15:48:18;12.85;;;8.73;;
67941;SDS011;54731;42.600;23.476;2022-11-12T15:50:44;10.37;;;7.47;;
67941;SDS011;54731;42.600;23.476;2022-11-12T15:53:10;9.98;;;7.00;;
67941;SDS011;54731;42.600;23.476;2022-11-12T15:55:36;24.03;;;14.93;;
67941;SDS011;54731;42.600;23.476;2022-11-12T15:58:02;16.02;;;10.57;;
67941;SDS011;54731;42.600;23.476;2022-11-12T16:00:33;79.80;;;37.55;;
67941;SDS011;54731;42.600;23.476;2022-11-12T16:03:11;40.23;;;20.70;;
67941;SDS011;54731;42.600;23.476;2022-11-12T16:05:37;64.00;;;26.20;;
67941;SDS011;54731;42.600;23.476;2022-11-12T16:08:03;87.63;;;38.40;;
67941;SDS011;54731;42.600;23.476;2022-11-12T16:10:28;29.92;;;13.13;;
67941;SDS011;54731;42.600;23.476;2022-11-12T16:12:55;98.70;;;44.43;;
67941;SDS011;54731;42.600;23.476;2022-11-12T16:15:22;57.28;;;27.77;;
67941;SDS011;54731;42.600;23.476;2022-11-12T16:17:48;53.10;;;25.43;;
67941;SDS011;54731;42.600;23.476;2022-11-12T16:20:14;80.15;;;40.05;;
67941;SDS011;54731;42.600;23.476;2022-11-12T16:22:42;33.63;;;18.25;;
67941;SDS011;54731;42.600;23.476;2022-11-12T16:25:07;29.37;;;15.33;;